Martin, Utah
Current Conditions -  °F | °C
As of 1:53 PM on Saturday 22 Nov 2014 (Local Time) from KPUC Reporting Station
Overcast Overcast  
Wind Chill:   Ceiling: 3900
Heat Index:   Visibility: 10mi
Dew Point: -4°   Wind: 9mph
Humidity: 57%   Direction: 30°NNE
Pressure: 29.88"   Gusts: NA
Location:  39.7304°N, 110.917°W
Report Text: KPUC 222053Z AUTO 03008KT 10SM FEW029 BKN039 OVC080 04/M04 A2988 RMK AO2 SLP145 T00391039 58027
Loading
Personal Weather Stations






























Interactive Weather Map New forecast layout! Learn more

10-Day Weather Forecast

Advertisements
Track Severe Weather on mobile